sensor_id;sensor_type;location;lat;lon;timestamp;temperature;humidity
3528;DHT22;1778;47.966;7.854;2022-07-17T00:00:58;21.10;79.10
3528;DHT22;1778;47.966;7.854;2022-07-17T00:01:59;21.10;79.40
3528;DHT22;1778;47.966;7.854;2022-07-17T00:03:02;21.00;79.30
3528;DHT22;1778;47.966;7.854;2022-07-17T00:04:04;21.10;79.10
3528;DHT22;1778;47.966;7.854;2022-07-17T00:05:06;21.10;79.10
3528;DHT22;1778;47.966;7.854;2022-07-17T00:06:08;21.10;79.30
3528;DHT22;1778;47.966;7.854;2022-07-17T00:07:10;21.10;79.20
3528;DHT22;1778;47.966;7.854;2022-07-17T00:08:12;21.10;79.40
3528;DHT22;1778;47.966;7.854;2022-07-17T00:09:14;21.00;79.20
3528;DHT22;1778;47.966;7.854;2022-07-17T00:10:16;21.10;80.50
3528;DHT22;1778;47.966;7.854;2022-07-17T00:11:18;21.10;79.40
3528;DHT22;1778;47.966;7.854;2022-07-17T00:12:20;21.00;79.40
3528;DHT22;1778;47.966;7.854;2022-07-17T00:13:21;21.00;79.20
3528;DHT22;1778;47.966;7.854;2022-07-17T00:14:24;21.00;79.40
3528;DHT22;1778;47.966;7.854;2022-07-17T00:15:25;20.90;79.50
3528;DHT22;1778;47.966;7.854;2022-07-17T00:16:27;20.90;79.20
3528;DHT22;1778;47.966;7.854;2022-07-17T00:17:30;20.90;79.50
3528;DHT22;1778;47.966;7.854;2022-07-17T00:18:31;20.90;79.60
3528;DHT22;1778;47.966;7.854;2022-07-17T00:19:33;20.90;79.80
3528;DHT22;1778;47.966;7.854;2022-07-17T00:20:35;21.00;80.40
3528;DHT22;1778;47.966;7.854;2022-07-17T00:21:36;21.00;79.40
3528;DHT22;1778;47.966;7.854;2022-07-17T00:22:38;21.00;79.20
3528;DHT22;1778;47.966;7.854;2022-07-17T00:23:39;21.00;79.40
3528;DHT22;1778;47.966;7.854;2022-07-17T00:24:42;21.00;79.40
3528;DHT22;1778;47.966;7.854;2022-07-17T00:25:43;21.00;79.80
3528;DHT22;1778;47.966;7.854;2022-07-17T00:26:49;21.00;79.80
3528;DHT22;1778;47.966;7.854;2022-07-17T00:27:51;21.10;79.60
3528;DHT22;1778;47.966;7.854;2022-07-17T00:28:52;21.00;79.50
3528;DHT22;1778;47.966;7.854;2022-07-17T00:29:54;21.00;79.40
3528;DHT22;1778;47.966;7.854;2022-07-17T00:30:56;21.00;79.40
3528;DHT22;1778;47.966;7.854;2022-07-17T00:31:57;21.00;79.70
3528;DHT22;1778;47.966;7.854;2022-07-17T00:32:59;21.00;79.50
3528;DHT22;1778;47.966;7.854;2022-07-17T00:34:01;20.90;79.40
3528;DHT22;1778;47.966;7.854;2022-07-17T00:35:03;21.00;79.20
3528;DHT22;1778;47.966;7.854;2022-07-17T00:36:05;21.10;79.30
3528;DHT22;1778;47.966;7.854;2022-07-17T00:37:07;21.10;79.60
3528;DHT22;1778;47.966;7.854;2022-07-17T00:38:09;21.10;79.20
3528;DHT22;1778;47.966;7.854;2022-07-17T00:39:11;21.00;79.60
3528;DHT22;1778;47.966;7.854;2022-07-17T00:40:21;21.10;79.20
3528;DHT22;1778;47.966;7.854;2022-07-17T00:41:23;21.00;79.20
3528;DHT22;1778;47.966;7.854;2022-07-17T00:42:24;21.00;79.10
3528;DHT22;1778;47.966;7.854;2022-07-17T00:43:26;21.00;79.50
3528;DHT22;1778;47.966;7.854;2022-07-17T00:44:28;21.20;78.80
3528;DHT22;1778;47.966;7.854;2022-07-17T00:45:30;21.10;78.70
3528;DHT22;1778;47.966;7.854;2022-07-17T00:46:32;21.20;78.70
3528;DHT22;1778;47.966;7.854;2022-07-17T00:47:58;21.10;79.10
3528;DHT22;1778;47.966;7.854;2022-07-17T00:49:01;21.10;79.20
3528;DHT22;1778;47.966;7.854;2022-07-17T00:50:04;21.00;79.00
3528;DHT22;1778;47.966;7.854;2022-07-17T00:51:07;21.10;79.60
3528;DHT22;1778;47.966;7.854;2022-07-17T00:52:10;21.10;79.70
3528;DHT22;1778;47.966;7.854;2022-07-17T00:53:13;21.00;79.70
3528;DHT22;1778;47.966;7.854;2022-07-17T00:54:15;21.00;79.80
3528;DHT22;1778;47.966;7.854;2022-07-17T00:55:21;20.90;79.80
3528;DHT22;1778;47.966;7.854;2022-07-17T00:56:46;20.80;80.10
3528;DHT22;1778;47.966;7.854;2022-07-17T00:57:48;20.80;80.50
3528;DHT22;1778;47.966;7.854;2022-07-17T00:58:51;20.80;80.90
3528;DHT22;1778;47.966;7.854;2022-07-17T00:59:52;20.70;81.00
3528;DHT22;1778;47.966;7.854;2022-07-17T01:00:55;20.70;80.80
3528;DHT22;1778;47.966;7.854;2022-07-17T01:01:57;20.70;80.70
3528;DHT22;1778;47.966;7.854;2022-07-17T01:02:59;20.70;80.90
3528;DHT22;1778;47.966;7.854;2022-07-17T01:04:01;20.70;80.60
3528;DHT22;1778;47.966;7.854;2022-07-17T01:05:05;20.70;80.80
3528;DHT22;1778;47.966;7.854;2022-07-17T01:06:07;20.70;80.70
3528;DHT22;1778;47.966;7.854;2022-07-17T01:07:09;20.70;81.20
3528;DHT22;1778;47.966;7.854;2022-07-17T01:08:11;20.70;81.20
3528;DHT22;1778;47.966;7.854;2022-07-17T01:09:13;20.60;81.30
3528;DHT22;1778;47.966;7.854;2022-07-17T01:10:17;20.60;81.70
3528;DHT22;1778;47.966;7.854;2022-07-17T01:11:19;20.50;81.60
3528;DHT22;1778;47.966;7.854;2022-07-17T01:12:21;20.50;81.70
3528;DHT22;1778;47.966;7.854;2022-07-17T01:13:24;20.50;83.00
3528;DHT22;1778;47.966;7.854;2022-07-17T01:14:27;20.50;82.80
3528;DHT22;1778;47.966;7.854;2022-07-17T01:15:29;20.50;82.20
3528;DHT22;1778;47.966;7.854;2022-07-17T01:16:32;20.50;82.20
3528;DHT22;1778;47.966;7.854;2022-07-17T01:17:34;20.50;82.80
3528;DHT22;1778;47.966;7.854;2022-07-17T01:18:37;20.40;84.20
3528;DHT22;1778;47.966;7.854;2022-07-17T01:19:38;20.40;83.70
3528;DHT22;1778;47.966;7.854;2022-07-17T01:20:43;20.30;84.50
3528;DHT22;1778;47.966;7.854;2022-07-17T01:21:46;20.40;85.40
3528;DHT22;1778;47.966;7.854;2022-07-17T01:22:50;20.40;85.60
3528;DHT22;1778;47.966;7.854;2022-07-17T01:23:52;20.30;86.20
3528;DHT22;1778;47.966;7.854;2022-07-17T01:24:53;20.20;85.30
3528;DHT22;1778;47.966;7.854;2022-07-17T01:25:55;20.10;87.70
3528;DHT22;1778;47.966;7.854;2022-07-17T01:26:57;20.10;87.90
3528;DHT22;1778;47.966;7.854;2022-07-17T01:27:59;20.00;88.60
3528;DHT22;1778;47.966;7.854;2022-07-17T01:29:01;20.00;89.70
3528;DHT22;1778;47.966;7.854;2022-07-17T01:30:03;20.00;88.80
3528;DHT22;1778;47.966;7.854;2022-07-17T01:31:05;20.00;87.90
3528;DHT22;1778;47.966;7.854;2022-07-17T01:32:07;19.80;89.30
3528;DHT22;1778;47.966;7.854;2022-07-17T01:33:09;19.80;90.00
3528;DHT22;1778;47.966;7.854;2022-07-17T01:34:12;19.70;89.60
3528;DHT22;1778;47.966;7.854;2022-07-17T01:35:15;19.70;90.30
3528;DHT22;1778;47.966;7.854;2022-07-17T01:36:22;19.60;90.60
3528;DHT22;1778;47.966;7.854;2022-07-17T01:37:24;19.60;89.40
3528;DHT22;1778;47.966;7.854;2022-07-17T01:38:26;19.40;88.20
3528;DHT22;1778;47.966;7.854;2022-07-17T01:39:28;19.40;88.50
3528;DHT22;1778;47.966;7.854;2022-07-17T01:40:48;19.30;89.00
3528;DHT22;1778;47.966;7.854;2022-07-17T01:41:50;19.20;88.80
3528;DHT22;1778;47.966;7.854;2022-07-17T01:42:51;19.10;89.00
3528;DHT22;1778;47.966;7.854;2022-07-17T01:43:57;19.10;89.60
3528;DHT22;1778;47.966;7.854;2022-07-17T01:44:59;19.00;90.00
3528;DHT22;1778;47.966;7.854;2022-07-17T01:46:00;18.90;90.30
3528;DHT22;1778;47.966;7.854;2022-07-17T01:47:03;18.80;90.30
3528;DHT22;1778;47.966;7.854;2022-07-17T01:48:05;18.60;90.60
3528;DHT22;1778;47.966;7.854;2022-07-17T01:49:07;18.30;90.90
3528;DHT22;1778;47.966;7.854;2022-07-17T01:50:09;18.20;91.30
3528;DHT22;1778;47.966;7.854;2022-07-17T01:51:11;18.20;91.60
3528;DHT22;1778;47.966;7.854;2022-07-17T01:52:13;18.20;91.70
3528;DHT22;1778;47.966;7.854;2022-07-17T01:53:15;18.00;91.80
3528;DHT22;1778;47.966;7.854;2022-07-17T01:54:17;18.10;92.00
3528;DHT22;1778;47.966;7.854;2022-07-17T01:55:19;18.10;92.10
3528;DHT22;1778;47.966;7.854;2022-07-17T01:56:20;18.10;92.20
3528;DHT22;1778;47.966;7.854;2022-07-17T01:57:22;18.20;92.10
3528;DHT22;1778;47.966;7.854;2022-07-17T01:58:24;18.00;92.10
3528;DHT22;1778;47.966;7.854;2022-07-17T01:59:26;18.00;92.40
3528;DHT22;1778;47.966;7.854;2022-07-17T02:00:27;18.00;92.70
3528;DHT22;1778;47.966;7.854;2022-07-17T02:01:30;17.90;92.80
3528;DHT22;1778;47.966;7.854;2022-07-17T02:02:32;18.00;93.20
3528;DHT22;1778;47.966;7.854;2022-07-17T02:03:34;17.90;93.20
3528;DHT22;1778;47.966;7.854;2022-07-17T02:04:37;17.90;93.50
3528;DHT22;1778;47.966;7.854;2022-07-17T02:05:38;17.80;93.30
3528;DHT22;1778;47.966;7.854;2022-07-17T02:06:40;17.80;93.30
3528;DHT22;1778;47.966;7.854;2022-07-17T02:07:42;17.80;93.30
3528;DHT22;1778;47.966;7.854;2022-07-17T02:08:45;17.80;93.50
3528;DHT22;1778;47.966;7.854;2022-07-17T02:09:47;17.70;94.10
3528;DHT22;1778;47.966;7.854;2022-07-17T02:10:49;17.60;93.80
3528;DHT22;1778;47.966;7.854;2022-07-17T02:11:50;17.60;93.90
3528;DHT22;1778;47.966;7.854;2022-07-17T02:12:52;17.70;94.20
3528;DHT22;1778;47.966;7.854;2022-07-17T02:13:54;17.60;94.30
3528;DHT22;1778;47.966;7.854;2022-07-17T02:14:56;17.70;94.30
3528;DHT22;1778;47.966;7.854;2022-07-17T02:15:57;17.50;94.40
3528;DHT22;1778;47.966;7.854;2022-07-17T02:16:59;17.50;94.40
3528;DHT22;1778;47.966;7.854;2022-07-17T02:18:01;17.60;94.70
3528;DHT22;1778;47.966;7.854;2022-07-17T02:19:02;17.50;94.40
3528;DHT22;1778;47.966;7.854;2022-07-17T02:20:04;17.50;94.30
3528;DHT22;1778;47.966;7.854;2022-07-17T02:21:07;17.50;94.50
3528;DHT22;1778;47.966;7.854;2022-07-17T02:22:09;17.40;94.80
3528;DHT22;1778;47.966;7.854;2022-07-17T02:23:10;17.50;94.70
3528;DHT22;1778;47.966;7.854;2022-07-17T02:24:12;17.50;94.80
3528;DHT22;1778;47.966;7.854;2022-07-17T02:25:14;17.40;95.20
3528;DHT22;1778;47.966;7.854;2022-07-17T02:26:16;17.30;94.80
3528;DHT22;1778;47.966;7.854;2022-07-17T02:27:18;17.20;94.80
3528;DHT22;1778;47.966;7.854;2022-07-17T02:28:20;17.20;94.90
3528;DHT22;1778;47.966;7.854;2022-07-17T02:29:21;17.30;95.10
3528;DHT22;1778;47.966;7.854;2022-07-17T02:30:23;17.20;95.30
3528;DHT22;1778;47.966;7.854;2022-07-17T02:31:24;17.20;95.30
3528;DHT22;1778;47.966;7.854;2022-07-17T02:32:26;17.20;95.40
3528;DHT22;1778;47.966;7.854;2022-07-17T02:33:27;17.20;95.60
3528;DHT22;1778;47.966;7.854;2022-07-17T02:34:29;17.20;95.60
3528;DHT22;1778;47.966;7.854;2022-07-17T02:35:31;17.10;95.80
3528;DHT22;1778;47.966;7.854;2022-07-17T02:36:32;17.10;96.00
3528;DHT22;1778;47.966;7.854;2022-07-17T02:37:34;17.10;96.20
3528;DHT22;1778;47.966;7.854;2022-07-17T02:38:37;17.10;96.20
3528;DHT22;1778;47.966;7.854;2022-07-17T02:39:39;17.10;96.30
3528;DHT22;1778;47.966;7.854;2022-07-17T02:40:54;16.90;96.40
3528;DHT22;1778;47.966;7.854;2022-07-17T02:41:56;17.00;96.70
3528;DHT22;1778;47.966;7.854;2022-07-17T02:42:57;16.90;96.60
3528;DHT22;1778;47.966;7.854;2022-07-17T02:43:59;16.90;96.80
3528;DHT22;1778;47.966;7.854;2022-07-17T02:45:01;16.90;97.00
3528;DHT22;1778;47.966;7.854;2022-07-17T02:46:03;16.90;96.90
3528;DHT22;1778;47.966;7.854;2022-07-17T02:47:04;16.80;97.00
3528;DHT22;1778;47.966;7.854;2022-07-17T02:48:06;16.70;97.20
3528;DHT22;1778;47.966;7.854;2022-07-17T02:49:08;16.70;97.30
3528;DHT22;1778;47.966;7.854;2022-07-17T02:50:09;16.70;97.10
3528;DHT22;1778;47.966;7.854;2022-07-17T02:51:11;16.60;97.20
3528;DHT22;1778;47.966;7.854;2022-07-17T02:52:13;16.60;97.40
3528;DHT22;1778;47.966;7.854;2022-07-17T02:53:15;16.60;97.50
3528;DHT22;1778;47.966;7.854;2022-07-17T02:54:16;16.60;97.70
3528;DHT22;1778;47.966;7.854;2022-07-17T02:55:19;16.60;97.80
3528;DHT22;1778;47.966;7.854;2022-07-17T02:56:20;16.50;97.90
3528;DHT22;1778;47.966;7.854;2022-07-17T02:57:22;16.50;98.00
3528;DHT22;1778;47.966;7.854;2022-07-17T02:58:24;16.50;98.10
3528;DHT22;1778;47.966;7.854;2022-07-17T02:59:25;16.50;98.10
3528;DHT22;1778;47.966;7.854;2022-07-17T03:00:27;16.40;98.20
3528;DHT22;1778;47.966;7.854;2022-07-17T03:01:29;16.30;98.40
3528;DHT22;1778;47.966;7.854;2022-07-17T03:02:34;16.30;98.30
3528;DHT22;1778;47.966;7.854;2022-07-17T03:03:36;16.30;98.80
3528;DHT22;1778;47.966;7.854;2022-07-17T03:04:38;16.40;99.00
3528;DHT22;1778;47.966;7.854;2022-07-17T03:05:39;16.50;99.00
3528;DHT22;1778;47.966;7.854;2022-07-17T03:06:41;16.40;98.80
3528;DHT22;1778;47.966;7.854;2022-07-17T03:07:49;16.40;98.90
3528;DHT22;1778;47.966;7.854;2022-07-17T03:08:51;16.40;99.00
3528;DHT22;1778;47.966;7.854;2022-07-17T03:09:53;16.30;98.90
3528;DHT22;1778;47.966;7.854;2022-07-17T03:10:55;16.30;99.00
3528;DHT22;1778;47.966;7.854;2022-07-17T03:11:57;16.20;99.10
3528;DHT22;1778;47.966;7.854;2022-07-17T03:12:58;16.10;99.30
3528;DHT22;1778;47.966;7.854;2022-07-17T03:14:00;16.10;99.50
3528;DHT22;1778;47.966;7.854;2022-07-17T03:15:03;16.20;99.70
3528;DHT22;1778;47.966;7.854;2022-07-17T03:16:05;16.10;99.70
3528;DHT22;1778;47.966;7.854;2022-07-17T03:17:07;16.00;99.90
3528;DHT22;1778;47.966;7.854;2022-07-17T03:18:08;16.10;99.90
3528;DHT22;1778;47.966;7.854;2022-07-17T03:19:10;16.10;99.90
3528;DHT22;1778;47.966;7.854;2022-07-17T03:20:12;16.10;99.90
3528;DHT22;1778;47.966;7.854;2022-07-17T03:21:13;16.10;99.90
3528;DHT22;1778;47.966;7.854;2022-07-17T03:22:15;16.00;99.90
3528;DHT22;1778;47.966;7.854;2022-07-17T03:23:17;15.90;99.90
3528;DHT22;1778;47.966;7.854;2022-07-17T03:24:19;16.00;99.90
3528;DHT22;1778;47.966;7.854;2022-07-17T03:25:21;15.90;99.90
3528;DHT22;1778;47.966;7.854;2022-07-17T03:26:23;15.90;99.90
3528;DHT22;1778;47.966;7.854;2022-07-17T03:27:24;15.90;99.90
3528;DHT22;1778;47.966;7.854;2022-07-17T03:28:26;16.00;99.90
3528;DHT22;1778;47.966;7.854;2022-07-17T03:29:28;16.00;99.90
3528;DHT22;1778;47.966;7.854;2022-07-17T03:30:29;16.10;99.90
3528;DHT22;1778;47.966;7.854;2022-07-17T03:31:31;16.10;99.90
3528;DHT22;1778;47.966;7.854;2022-07-17T03:32:33;16.10;99.90
3528;DHT22;1778;47.966;7.854;2022-07-17T03:33:35;16.10;99.90
3528;DHT22;1778;47.966;7.854;2022-07-17T03:34:37;16.00;99.90
3528;DHT22;1778;47.966;7.854;2022-07-17T03:35:39;15.90;99.90
3528;DHT22;1778;47.966;7.854;2022-07-17T03:36:41;15.90;99.90
3528;DHT22;1778;47.966;7.854;2022-07-17T03:37:42;15.90;99.90
3528;DHT22;1778;47.966;7.854;2022-07-17T03:38:45;15.80;99.90
3528;DHT22;1778;47.966;7.854;2022-07-17T03:39:47;15.80;99.90
3528;DHT22;1778;47.966;7.854;2022-07-17T03:40:49;15.80;99.90
3528;DHT22;1778;47.966;7.854;2022-07-17T03:41:51;16.00;99.90
3528;DHT22;1778;47.966;7.854;2022-07-17T03:42:59;15.90;99.90
3528;DHT22;1778;47.966;7.854;2022-07-17T03:44:01;15.80;99.90
3528;DHT22;1778;47.966;7.854;2022-07-17T03:45:03;15.70;99.90
3528;DHT22;1778;47.966;7.854;2022-07-17T03:46:05;15.70;99.90
3528;DHT22;1778;47.966;7.854;2022-07-17T03:47:07;15.80;99.90
3528;DHT22;1778;47.966;7.854;2022-07-17T03:48:09;15.70;99.90
3528;DHT22;1778;47.966;7.854;2022-07-17T03:49:11;15.70;99.90
3528;DHT22;1778;47.966;7.854;2022-07-17T03:50:13;15.60;99.90
3528;DHT22;1778;47.966;7.854;2022-07-17T03:51:15;15.60;99.90
3528;DHT22;1778;47.966;7.854;2022-07-17T03:52:16;15.70;99.90
3528;DHT22;1778;47.966;7.854;2022-07-17T03:53:18;15.70;99.90
3528;DHT22;1778;47.966;7.854;2022-07-17T03:54:19;15.70;99.90
3528;DHT22;1778;47.966;7.854;2022-07-17T03:55:22;15.60;99.90
3528;DHT22;1778;47.966;7.854;2022-07-17T03:56:23;15.60;99.90
3528;DHT22;1778;47.966;7.854;2022-07-17T03:57:25;15.70;99.90
3528;DHT22;1778;47.966;7.854;2022-07-17T03:58:27;15.60;99.90
3528;DHT22;1778;47.966;7.854;2022-07-17T03:59:29;15.50;99.90
3528;DHT22;1778;47.966;7.854;2022-07-17T04:00:30;15.50;99.90
3528;DHT22;1778;47.966;7.854;2022-07-17T04:01:32;15.60;99.90
3528;DHT22;1778;47.966;7.854;2022-07-17T04:02:34;15.50;99.90
3528;DHT22;1778;47.966;7.854;2022-07-17T04:03:36;15.40;99.90
3528;DHT22;1778;47.966;7.854;2022-07-17T04:04:37;15.40;99.90
3528;DHT22;1778;47.966;7.854;2022-07-17T04:05:39;15.40;99.90
3528;DHT22;1778;47.966;7.854;2022-07-17T04:06:40;15.40;99.90
3528;DHT22;1778;47.966;7.854;2022-07-17T04:07:42;15.40;99.90
3528;DHT22;1778;47.966;7.854;2022-07-17T04:08:44;15.40;99.90
3528;DHT22;1778;47.966;7.854;2022-07-17T04:09:46;15.40;99.90
3528;DHT22;1778;47.966;7.854;2022-07-17T04:10:48;15.40;99.90
3528;DHT22;1778;47.966;7.854;2022-07-17T04:11:49;15.50;99.90
3528;DHT22;1778;47.966;7.854;2022-07-17T04:12:51;15.30;99.90
3528;DHT22;1778;47.966;7.854;2022-07-17T04:13:53;15.40;99.90
3528;DHT22;1778;47.966;7.854;2022-07-17T04:14:55;15.40;99.90
3528;DHT22;1778;47.966;7.854;2022-07-17T04:15:57;15.30;99.90
3528;DHT22;1778;47.966;7.854;2022-07-17T04:16:58;15.30;99.90
3528;DHT22;1778;47.966;7.854;2022-07-17T04:18:00;15.30;99.90
3528;DHT22;1778;47.966;7.854;2022-07-17T04:19:02;15.40;99.90
3528;DHT22;1778;47.966;7.854;2022-07-17T04:20:05;15.40;99.90
3528;DHT22;1778;47.966;7.854;2022-07-17T04:21:08;15.40;99.90
3528;DHT22;1778;47.966;7.854;2022-07-17T04:22:10;15.30;99.90
3528;DHT22;1778;47.966;7.854;2022-07-17T04:23:12;15.20;99.90
3528;DHT22;1778;47.966;7.854;2022-07-17T04:24:14;15.30;99.90
3528;DHT22;1778;47.966;7.854;2022-07-17T04:25:16;15.30;99.90
3528;DHT22;1778;47.966;7.854;2022-07-17T04:26:17;15.30;99.90
3528;DHT22;1778;47.966;7.854;2022-07-17T04:27:20;15.40;99.90
3528;DHT22;1778;47.966;7.854;2022-07-17T04:28:22;15.40;99.90
3528;DHT22;1778;47.966;7.854;2022-07-17T04:29:23;15.40;99.90
3528;DHT22;1778;47.966;7.854;2022-07-17T04:30:25;15.30;99.90
3528;DHT22;1778;47.966;7.854;2022-07-17T04:31:27;15.40;99.90
3528;DHT22;1778;47.966;7.854;2022-07-17T04:32:29;15.40;99.90
3528;DHT22;1778;47.966;7.854;2022-07-17T04:33:31;15.40;99.90
3528;DHT22;1778;47.966;7.854;2022-07-17T04:34:32;15.50;99.90
3528;DHT22;1778;47.966;7.854;2022-07-17T04:35:35;15.50;99.90
3528;DHT22;1778;47.966;7.854;2022-07-17T04:36:36;15.40;99.90
3528;DHT22;1778;47.966;7.854;2022-07-17T04:37:38;15.40;99.90
3528;DHT22;1778;47.966;7.854;2022-07-17T04:38:39;15.40;99.90
3528;DHT22;1778;47.966;7.854;2022-07-17T04:39:41;15.30;99.90
3528;DHT22;1778;47.966;7.854;2022-07-17T04:40:43;15.40;99.90
3528;DHT22;1778;47.966;7.854;2022-07-17T04:41:44;15.40;99.90
3528;DHT22;1778;47.966;7.854;2022-07-17T04:42:46;15.50;99.90
3528;DHT22;1778;47.966;7.854;2022-07-17T04:43:48;15.40;99.90
3528;DHT22;1778;47.966;7.854;2022-07-17T04:44:49;15.40;99.90
3528;DHT22;1778;47.966;7.854;2022-07-17T04:45:51;15.40;99.90
3528;DHT22;1778;47.966;7.854;2022-07-17T04:46:53;15.40;99.90
3528;DHT22;1778;47.966;7.854;2022-07-17T04:47:57;15.50;99.90
3528;DHT22;1778;47.966;7.854;2022-07-17T04:48:58;15.40;99.90
3528;DHT22;1778;47.966;7.854;2022-07-17T04:50:00;15.30;99.90
3528;DHT22;1778;47.966;7.854;2022-07-17T04:51:02;15.30;99.90
3528;DHT22;1778;47.966;7.854;2022-07-17T04:52:04;15.30;99.90
3528;DHT22;1778;47.966;7.854;2022-07-17T04:53:06;15.40;99.90
3528;DHT22;1778;47.966;7.854;2022-07-17T04:54:08;15.40;99.90
3528;DHT22;1778;47.966;7.854;2022-07-17T04:55:10;15.40;99.90
3528;DHT22;1778;47.966;7.854;2022-07-17T04:56:12;15.40;99.90
3528;DHT22;1778;47.966;7.854;2022-07-17T04:57:13;15.30;99.90
3528;DHT22;1778;47.966;7.854;2022-07-17T04:58:15;15.30;99.90
3528;DHT22;1778;47.966;7.854;2022-07-17T04:59:17;15.30;99.90
3528;DHT22;1778;47.966;7.854;2022-07-17T05:00:18;15.30;99.90
3528;DHT22;1778;47.966;7.854;2022-07-17T05:01:20;15.30;99.90
3528;DHT22;1778;47.966;7.854;2022-07-17T05:02:22;15.20;99.90
3528;DHT22;1778;47.966;7.854;2022-07-17T05:03:24;15.30;99.90
3528;DHT22;1778;47.966;7.854;2022-07-17T05:04:26;15.30;99.90
3528;DHT22;1778;47.966;7.854;2022-07-17T05:05:28;15.40;99.90
3528;DHT22;1778;47.966;7.854;2022-07-17T05:06:30;15.40;99.90
3528;DHT22;1778;47.966;7.854;2022-07-17T05:07:32;15.30;99.90
3528;DHT22;1778;47.966;7.854;2022-07-17T05:08:35;15.30;99.90
3528;DHT22;1778;47.966;7.854;2022-07-17T05:09:37;15.20;99.90
3528;DHT22;1778;47.966;7.854;2022-07-17T05:10:38;15.20;99.90
3528;DHT22;1778;47.966;7.854;2022-07-17T05:11:40;15.30;99.90
3528;DHT22;1778;47.966;7.854;2022-07-17T05:12:41;15.20;99.90
3528;DHT22;1778;47.966;7.854;2022-07-17T05:13:43;15.30;99.90
3528;DHT22;1778;47.966;7.854;2022-07-17T05:14:45;15.30;99.90
3528;DHT22;1778;47.966;7.854;2022-07-17T05:15:46;15.30;99.90
3528;DHT22;1778;47.966;7.854;2022-07-17T05:16:48;15.40;99.90
3528;DHT22;1778;47.966;7.854;2022-07-17T05:17:49;15.40;99.90
3528;DHT22;1778;47.966;7.854;2022-07-17T05:18:51;15.40;99.90
3528;DHT22;1778;47.966;7.854;2022-07-17T05:19:53;15.40;99.90
3528;DHT22;1778;47.966;7.854;2022-07-17T05:20:54;15.50;99.90
3528;DHT22;1778;47.966;7.854;2022-07-17T05:21:56;15.60;99.90
3528;DHT22;1778;47.966;7.854;2022-07-17T05:23:27;15.60;99.90
3528;DHT22;1778;47.966;7.854;2022-07-17T05:24:30;15.70;99.90
3528;DHT22;1778;47.966;7.854;2022-07-17T05:25:32;15.70;99.90
3528;DHT22;1778;47.966;7.854;2022-07-17T05:26:33;15.70;99.90
3528;DHT22;1778;47.966;7.854;2022-07-17T05:27:35;15.80;99.90
3528;DHT22;1778;47.966;7.854;2022-07-17T05:28:37;15.80;99.90
3528;DHT22;1778;47.966;7.854;2022-07-17T05:29:39;15.80;99.90
3528;DHT22;1778;47.966;7.854;2022-07-17T05:30:40;15.90;99.90
3528;DHT22;1778;47.966;7.854;2022-07-17T05:31:42;15.90;99.90
3528;DHT22;1778;47.966;7.854;2022-07-17T05:32:43;15.90;99.90
3528;DHT22;1778;47.966;7.854;2022-07-17T05:33:45;15.90;99.90
3528;DHT22;1778;47.966;7.854;2022-07-17T05:34:47;15.90;99.90
3528;DHT22;1778;47.966;7.854;2022-07-17T05:35:49;16.00;99.90
3528;DHT22;1778;47.966;7.854;2022-07-17T05:36:51;16.00;99.90
3528;DHT22;1778;47.966;7.854;2022-07-17T05:37:52;16.00;99.90
3528;DHT22;1778;47.966;7.854;2022-07-17T05:38:54;16.00;99.90
3528;DHT22;1778;47.966;7.854;2022-07-17T05:39:55;16.00;99.90
3528;DHT22;1778;47.966;7.854;2022-07-17T05:40:57;16.10;99.90
3528;DHT22;1778;47.966;7.854;2022-07-17T05:42:00;16.10;99.90
3528;DHT22;1778;47.966;7.854;2022-07-17T05:43:02;16.10;99.90
3528;DHT22;1778;47.966;7.854;2022-07-17T05:44:04;16.20;99.90
3528;DHT22;1778;47.966;7.854;2022-07-17T05:45:07;16.20;99.90
3528;DHT22;1778;47.966;7.854;2022-07-17T05:46:08;16.30;99.90
3528;DHT22;1778;47.966;7.854;2022-07-17T05:47:10;16.40;99.90
3528;DHT22;1778;47.966;7.854;2022-07-17T05:48:12;16.60;99.90
3528;DHT22;1778;47.966;7.854;2022-07-17T05:49:14;16.70;99.90
3528;DHT22;1778;47.966;7.854;2022-07-17T05:50:15;16.80;99.90
3528;DHT22;1778;47.966;7.854;2022-07-17T05:51:17;16.80;99.90
3528;DHT22;1778;47.966;7.854;2022-07-17T05:52:25;16.80;99.90
3528;DHT22;1778;47.966;7.854;2022-07-17T05:53:26;16.90;99.90
3528;DHT22;1778;47.966;7.854;2022-07-17T05:54:28;17.00;99.90
3528;DHT22;1778;47.966;7.854;2022-07-17T05:55:30;16.90;99.90
3528;DHT22;1778;47.966;7.854;2022-07-17T05:56:32;16.90;99.90
3528;DHT22;1778;47.966;7.854;2022-07-17T05:57:34;17.00;99.90
3528;DHT22;1778;47.966;7.854;2022-07-17T05:58:35;17.10;99.90
3528;DHT22;1778;47.966;7.854;2022-07-17T05:59:37;17.10;99.90
3528;DHT22;1778;47.966;7.854;2022-07-17T06:00:39;17.20;99.90
3528;DHT22;1778;47.966;7.854;2022-07-17T06:01:41;17.10;99.90
3528;DHT22;1778;47.966;7.854;2022-07-17T06:02:43;17.10;99.90
3528;DHT22;1778;47.966;7.854;2022-07-17T06:03:45;17.20;99.90
3528;DHT22;1778;47.966;7.854;2022-07-17T06:04:47;17.20;99.90
3528;DHT22;1778;47.966;7.854;2022-07-17T06:05:49;17.30;99.90
3528;DHT22;1778;47.966;7.854;2022-07-17T06:06:50;17.30;99.90
3528;DHT22;1778;47.966;7.854;2022-07-17T06:07:52;17.30;99.90
3528;DHT22;1778;47.966;7.854;2022-07-17T06:08:54;17.40;99.90
3528;DHT22;1778;47.966;7.854;2022-07-17T06:09:55;17.40;99.90
3528;DHT22;1778;47.966;7.854;2022-07-17T06:10:57;17.40;99.90
3528;DHT22;1778;47.966;7.854;2022-07-17T06:11:59;17.50;99.90
3528;DHT22;1778;47.966;7.854;2022-07-17T06:13:01;17.60;99.90
3528;DHT22;1778;47.966;7.854;2022-07-17T06:14:02;17.50;99.90
3528;DHT22;1778;47.966;7.854;2022-07-17T06:15:04;17.50;99.90
3528;DHT22;1778;47.966;7.854;2022-07-17T06:16:06;17.60;99.90
3528;DHT22;1778;47.966;7.854;2022-07-17T06:17:08;17.60;99.90
3528;DHT22;1778;47.966;7.854;2022-07-17T06:18:26;17.60;99.90
3528;DHT22;1778;47.966;7.854;2022-07-17T06:19:27;17.50;99.90
3528;DHT22;1778;47.966;7.854;2022-07-17T06:20:30;17.50;99.90
3528;DHT22;1778;47.966;7.854;2022-07-17T06:21:32;17.50;99.90
3528;DHT22;1778;47.966;7.854;2022-07-17T06:22:33;17.50;99.90
3528;DHT22;1778;47.966;7.854;2022-07-17T06:23:35;17.50;99.90
3528;DHT22;1778;47.966;7.854;2022-07-17T06:24:37;17.40;99.90
3528;DHT22;1778;47.966;7.854;2022-07-17T06:25:38;17.50;99.90
3528;DHT22;1778;47.966;7.854;2022-07-17T06:26:40;17.50;99.90
3528;DHT22;1778;47.966;7.854;2022-07-17T06:27:42;17.50;99.90
3528;DHT22;1778;47.966;7.854;2022-07-17T06:28:44;17.50;99.90
3528;DHT22;1778;47.966;7.854;2022-07-17T06:29:46;17.50;99.90
3528;DHT22;1778;47.966;7.854;2022-07-17T06:30:56;17.60;99.90
3528;DHT22;1778;47.966;7.854;2022-07-17T06:31:58;17.60;99.90
3528;DHT22;1778;47.966;7.854;2022-07-17T06:33:00;17.60;99.90
3528;DHT22;1778;47.966;7.854;2022-07-17T06:34:02;17.60;99.90
3528;DHT22;1778;47.966;7.854;2022-07-17T06:35:04;17.60;99.90
3528;DHT22;1778;47.966;7.854;2022-07-17T06:36:06;17.70;99.90
3528;DHT22;1778;47.966;7.854;2022-07-17T06:37:08;17.80;99.90
3528;DHT22;1778;47.966;7.854;2022-07-17T06:38:09;17.80;99.90
3528;DHT22;1778;47.966;7.854;2022-07-17T06:39:12;17.70;99.90
3528;DHT22;1778;47.966;7.854;2022-07-17T06:40:13;17.80;99.90
3528;DHT22;1778;47.966;7.854;2022-07-17T06:41:15;17.80;99.90
3528;DHT22;1778;47.966;7.854;2022-07-17T06:42:17;17.80;99.90
3528;DHT22;1778;47.966;7.854;2022-07-17T06:43:19;17.80;99.90
3528;DHT22;1778;47.966;7.854;2022-07-17T06:44:21;17.90;99.90
3528;DHT22;1778;47.966;7.854;2022-07-17T06:45:23;17.90;99.90
3528;DHT22;1778;47.966;7.854;2022-07-17T06:46:25;17.90;99.90
3528;DHT22;1778;47.966;7.854;2022-07-17T06:47:27;17.90;99.90